AZA1961 LIBC-LIMC
Flight info
| Callsign | AZA1961 |
|---|---|
| Flight time | N/A |
| Altitude | 32000 |
| Route | CDC M620 ARBUM DCT MOPUV DCT NIKMA DCT LOMED DCT BEROK DCT MIVKI DCT GOLAS DCT MEBUR |
| Aircraft | A321/M-SDE3FGHIRWY/LB1 |
Departure
| Time | 2026-05-04 12:28 |
|---|---|
| Airport | Crotone Sant'Anna Pythagoras Airport (LIBC) |
Arrival
| Time | N/A |
|---|---|
| Airport | Milan Malpensa International Airport (LIMC) |
| Time | Latitude | Longitude | Altitude | Speed | Heading |
|---|---|---|---|---|---|
| 2026-05-04 12:17 | 38.99562 | 17.07781 | 528 ft | 0 kts | 308° |
| 2026-05-04 12:18 | 38.99554 | 17.07795 | 527 ft | 3 kts | 308° |
| 2026-05-04 12:18 | 38.99551 | 17.07799 | 527 ft | 0 kts | 308° |
| 2026-05-04 12:20 | 38.99560 | 17.07798 | 527 ft | 2 kts | 3° |
| 2026-05-04 12:20 | 38.99598 | 17.07814 | 527 ft | 7 kts | 31° |
| 2026-05-04 12:21 | 38.99624 | 17.07858 | 526 ft | 6 kts | 56° |
| 2026-05-04 12:21 | 38.99643 | 17.07910 | 526 ft | 6 kts | 69° |
| 2026-05-04 12:21 | 38.99656 | 17.07956 | 525 ft | 5 kts | 69° |
| 2026-05-04 12:21 | 38.99669 | 17.08000 | 524 ft | 5 kts | 69° |
| 2026-05-04 12:22 | 38.99700 | 17.08018 | 523 ft | 5 kts | 0° |
| 2026-05-04 12:22 | 38.99738 | 17.08015 | 523 ft | 5 kts | 356° |
| 2026-05-04 12:22 | 38.99773 | 17.08012 | 523 ft | 4 kts | 356° |
| 2026-05-04 12:22 | 38.99795 | 17.08006 | 523 ft | 2 kts | 347° |
| 2026-05-04 12:23 | 38.99810 | 17.08002 | 523 ft | 5 kts | 347° |
| 2026-05-04 12:23 | 38.99867 | 17.07986 | 525 ft | 12 kts | 347° |
| 2026-05-04 12:23 | 38.99960 | 17.07960 | 527 ft | 13 kts | 349° |
| 2026-05-04 12:23 | 39.00044 | 17.07939 | 527 ft | 11 kts | 349° |
| 2026-05-04 12:24 | 39.00113 | 17.07921 | 528 ft | 9 kts | 349° |
| 2026-05-04 12:24 | 39.00161 | 17.07909 | 529 ft | 5 kts | 349° |
| 2026-05-04 12:24 | 39.00189 | 17.07902 | 529 ft | 3 kts | 349° |
| 2026-05-04 12:24 | 39.00229 | 17.07892 | 530 ft | 11 kts | 349° |
| 2026-05-04 12:25 | 39.00320 | 17.07870 | 529 ft | 14 kts | 349° |
| 2026-05-04 12:25 | 39.00407 | 17.07848 | 529 ft | 12 kts | 349° |
| 2026-05-04 12:25 | 39.00475 | 17.07830 | 531 ft | 8 kts | 349° |
| 2026-05-04 12:25 | 39.00520 | 17.07817 | 531 ft | 5 kts | 339° |
| 2026-05-04 12:26 | 39.00543 | 17.07789 | 531 ft | 4 kts | 314° |
| 2026-05-04 12:26 | 39.00567 | 17.07771 | 531 ft | 4 kts | 338° |
| 2026-05-04 12:26 | 39.00583 | 17.07774 | 531 ft | 2 kts | 20° |
| 2026-05-04 12:26 | 39.00587 | 17.07780 | 531 ft | 2 kts | 46° |
| 2026-05-04 12:27 | 39.00584 | 17.07792 | 531 ft | 1 kts | 120° |
| 2026-05-04 12:27 | 39.00568 | 17.07805 | 531 ft | 0 kts | 160° |
| 2026-05-04 12:28 | 39.00521 | 17.07823 | 531 ft | 35 kts | 165° |
| 2026-05-04 12:28 | 39.00024 | 17.07949 | 527 ft | 107 kts | 169° |
| 2026-05-04 12:28 | 38.99114 | 17.08168 | 659 ft | 147 kts | 171° |
| 2026-05-04 12:28 | 38.98115 | 17.08375 | 1376 ft | 146 kts | 174° |
| 2026-05-04 12:29 | 38.97110 | 17.08575 | 2067 ft | 147 kts | 169° |
| 2026-05-04 12:29 | 38.96060 | 17.08855 | 2523 ft | 165 kts | 169° |
| 2026-05-04 12:29 | 38.94868 | 17.09177 | 2871 ft | 184 kts | 169° |
| 2026-05-04 12:29 | 38.93551 | 17.09529 | 3003 ft | 204 kts | 169° |
| 2026-05-04 12:30 | 38.92092 | 17.09914 | 3168 ft | 223 kts | 169° |
| 2026-05-04 12:30 | 38.90492 | 17.10332 | 3348 ft | 247 kts | 169° |
| 2026-05-04 12:30 | 38.88731 | 17.10758 | 3740 ft | 263 kts | 175° |
| 2026-05-04 12:30 | 38.86944 | 17.10360 | 4361 ft | 266 kts | 210° |
| 2026-05-04 12:31 | 38.85647 | 17.08713 | 5034 ft | 267 kts | 245° |
| 2026-05-04 12:31 | 38.85084 | 17.06451 | 5701 ft | 269 kts | 261° |
| 2026-05-04 12:31 | 38.84858 | 17.04060 | 6374 ft | 271 kts | 266° |
| 2026-05-04 12:31 | 38.84712 | 17.01636 | 7030 ft | 274 kts | 268° |
| 2026-05-04 12:32 | 38.84538 | 16.99181 | 7663 ft | 278 kts | 265° |
| 2026-05-04 12:32 | 38.84015 | 16.94204 | 8909 ft | 285 kts | 262° |
| 2026-05-04 12:32 | 38.83685 | 16.91680 | 9543 ft | 289 kts | 262° |
| 2026-05-04 12:33 | 38.83332 | 16.89164 | 10150 ft | 292 kts | 261° |
| 2026-05-04 12:33 | 38.82954 | 16.86550 | 10407 ft | 308 kts | 261° |
| 2026-05-04 12:33 | 38.82546 | 16.83767 | 10531 ft | 327 kts | 261° |
| 2026-05-04 12:33 | 38.82115 | 16.80824 | 10643 ft | 345 kts | 261° |
| 2026-05-04 12:34 | 38.81659 | 16.77724 | 10779 ft | 362 kts | 261° |
| 2026-05-04 12:34 | 38.81182 | 16.74483 | 10908 ft | 377 kts | 261° |
| 2026-05-04 12:34 | 38.80687 | 16.71120 | 11041 ft | 390 kts | 261° |
| 2026-05-04 12:34 | 38.80177 | 16.67662 | 11277 ft | 398 kts | 261° |
| 2026-05-04 12:35 | 38.79657 | 16.64159 | 11671 ft | 401 kts | 261° |
| 2026-05-04 12:35 | 38.79132 | 16.60640 | 12087 ft | 403 kts | 261° |
| 2026-05-04 12:35 | 38.78606 | 16.57100 | 12490 ft | 405 kts | 261° |
| 2026-05-04 12:35 | 38.78078 | 16.53551 | 12881 ft | 407 kts | 261° |
| 2026-05-04 12:36 | 38.77546 | 16.49978 | 13256 ft | 409 kts | 261° |
| 2026-05-04 12:36 | 38.77015 | 16.46396 | 13638 ft | 410 kts | 262° |
| 2026-05-04 12:36 | 38.76815 | 16.42764 | 13992 ft | 409 kts | 274° |
| 2026-05-04 12:36 | 38.77236 | 16.39160 | 14312 ft | 408 kts | 286° |
| 2026-05-04 12:37 | 38.78254 | 16.35773 | 14642 ft | 408 kts | 298° |
| 2026-05-04 12:37 | 38.79816 | 16.32741 | 14962 ft | 409 kts | 310° |
| 2026-05-04 12:37 | 38.81847 | 16.30185 | 15309 ft | 411 kts | 320° |
| 2026-05-04 12:37 | 38.84048 | 16.27832 | 15654 ft | 413 kts | 320° |
| 2026-05-04 12:38 | 38.86257 | 16.25461 | 16014 ft | 414 kts | 320° |
| 2026-05-04 12:38 | 38.88466 | 16.23080 | 16368 ft | 416 kts | 320° |
| 2026-05-04 12:38 | 38.90685 | 16.20684 | 16722 ft | 418 kts | 319° |
| 2026-05-04 12:38 | 38.92888 | 16.18301 | 17075 ft | 420 kts | 319° |
| 2026-05-04 12:39 | 38.95130 | 16.15875 | 17439 ft | 422 kts | 319° |
| 2026-05-04 12:39 | 38.97383 | 16.13435 | 17812 ft | 424 kts | 319° |
| 2026-05-04 12:39 | 38.99642 | 16.10988 | 18172 ft | 426 kts | 319° |
| 2026-05-04 12:39 | 39.01916 | 16.08524 | 18513 ft | 428 kts | 319° |
| 2026-05-04 12:40 | 39.04200 | 16.06050 | 18817 ft | 429 kts | 319° |
| 2026-05-04 12:40 | 39.06486 | 16.03573 | 19139 ft | 430 kts | 319° |
| 2026-05-04 12:40 | 39.08784 | 16.01080 | 19475 ft | 431 kts | 319° |
| 2026-05-04 12:40 | 39.11079 | 15.98587 | 19774 ft | 432 kts | 319° |
| 2026-05-04 12:41 | 39.13379 | 15.96087 | 20079 ft | 433 kts | 319° |
| 2026-05-04 12:41 | 39.15684 | 15.93578 | 20396 ft | 435 kts | 319° |
| 2026-05-04 12:41 | 39.17996 | 15.91055 | 20682 ft | 436 kts | 319° |
| 2026-05-04 12:41 | 39.20287 | 15.88551 | 20982 ft | 438 kts | 319° |
| 2026-05-04 12:42 | 39.22614 | 15.86006 | 21301 ft | 439 kts | 319° |
| 2026-05-04 12:42 | 39.24944 | 15.83458 | 21608 ft | 439 kts | 319° |
| 2026-05-04 12:42 | 39.27280 | 15.80909 | 21916 ft | 440 kts | 320° |
| 2026-05-04 12:42 | 39.29774 | 15.78599 | 22194 ft | 442 kts | 325° |
| 2026-05-04 12:43 | 39.32340 | 15.76388 | 22476 ft | 443 kts | 325° |
| 2026-05-04 12:43 | 39.34907 | 15.74176 | 22748 ft | 444 kts | 325° |
| 2026-05-04 12:43 | 39.37478 | 15.71958 | 23012 ft | 445 kts | 324° |
| 2026-05-04 12:43 | 39.40056 | 15.69730 | 23240 ft | 446 kts | 324° |
| 2026-05-04 12:44 | 39.42636 | 15.67500 | 23454 ft | 447 kts | 324° |
| 2026-05-04 12:44 | 39.45222 | 15.65261 | 23653 ft | 448 kts | 324° |
| 2026-05-04 12:44 | 39.47816 | 15.63017 | 23812 ft | 449 kts | 324° |
| 2026-05-04 12:44 | 39.50417 | 15.60767 | 23955 ft | 450 kts | 324° |
| 2026-05-04 12:45 | 39.53026 | 15.58506 | 24111 ft | 451 kts | 324° |
| 2026-05-04 12:45 | 39.55626 | 15.56245 | 24330 ft | 450 kts | 324° |
| 2026-05-04 12:45 | 39.58215 | 15.53986 | 24562 ft | 448 kts | 324° |
| 2026-05-04 12:45 | 39.60802 | 15.51730 | 24791 ft | 447 kts | 324° |
| 2026-05-04 12:46 | 39.63383 | 15.49482 | 25020 ft | 446 kts | 324° |
| 2026-05-04 12:46 | 39.65928 | 15.47265 | 25246 ft | 445 kts | 324° |
| 2026-05-04 12:46 | 39.68491 | 15.45027 | 25476 ft | 444 kts | 324° |
| 2026-05-04 12:46 | 39.71045 | 15.42791 | 25721 ft | 442 kts | 324° |
| 2026-05-04 12:47 | 39.73597 | 15.40557 | 25934 ft | 441 kts | 324° |
| 2026-05-04 12:47 | 39.76141 | 15.38324 | 26178 ft | 440 kts | 324° |
| 2026-05-04 12:47 | 39.78671 | 15.36097 | 26413 ft | 439 kts | 324° |
| 2026-05-04 12:47 | 39.81199 | 15.33871 | 26649 ft | 438 kts | 324° |
| 2026-05-04 12:48 | 39.83717 | 15.31657 | 26885 ft | 437 kts | 324° |
| 2026-05-04 12:48 | 39.85383 | 15.30195 | 27039 ft | 436 kts | 324° |
| 2026-05-04 12:48 | 39.87898 | 15.27989 | 27269 ft | 435 kts | 324° |
| 2026-05-04 12:48 | 39.90402 | 15.25788 | 27491 ft | 434 kts | 324° |
| 2026-05-04 12:49 | 39.92903 | 15.23588 | 27700 ft | 434 kts | 324° |
| 2026-05-04 12:49 | 39.95398 | 15.21387 | 27927 ft | 433 kts | 324° |
| 2026-05-04 12:49 | 39.98698 | 15.18474 | 28234 ft | 431 kts | 323° |
| 2026-05-04 12:49 | 40.01164 | 15.16254 | 28452 ft | 430 kts | 323° |
| 2026-05-04 12:50 | 40.02818 | 15.14742 | 28615 ft | 430 kts | 323° |
| 2026-05-04 12:50 | 40.05252 | 15.12489 | 28844 ft | 428 kts | 322° |
| 2026-05-04 12:50 | 40.07677 | 15.10227 | 29075 ft | 427 kts | 322° |
| 2026-05-04 12:50 | 40.10093 | 15.07975 | 29304 ft | 426 kts | 322° |
| 2026-05-04 12:51 | 40.12506 | 15.05733 | 29522 ft | 426 kts | 322° |
| 2026-05-04 12:51 | 40.14918 | 15.03499 | 29748 ft | 425 kts | 323° |
| 2026-05-04 12:51 | 40.17331 | 15.01269 | 29916 ft | 425 kts | 323° |
| 2026-05-04 12:51 | 40.19748 | 14.99035 | 30121 ft | 425 kts | 323° |
| 2026-05-04 12:52 | 40.22128 | 14.96830 | 30304 ft | 424 kts | 323° |
| 2026-05-04 12:52 | 40.24559 | 14.94577 | 30495 ft | 423 kts | 322° |
| 2026-05-04 12:52 | 40.26959 | 14.92348 | 30694 ft | 422 kts | 322° |
| 2026-05-04 12:52 | 40.29312 | 14.90159 | 30913 ft | 420 kts | 322° |
| 2026-05-04 12:53 | 40.31687 | 14.87948 | 31141 ft | 418 kts | 322° |
| 2026-05-04 12:53 | 40.34057 | 14.85742 | 31338 ft | 417 kts | 322° |
| 2026-05-04 12:53 | 40.36419 | 14.83541 | 31546 ft | 415 kts | 322° |
| 2026-05-04 12:53 | 40.38770 | 14.81350 | 31756 ft | 414 kts | 322° |
| 2026-05-04 12:54 | 40.41116 | 14.79162 | 31932 ft | 414 kts | 322° |
| 2026-05-04 12:54 | 40.43463 | 14.76969 | 32097 ft | 414 kts | 322° |
| 2026-05-04 12:54 | 40.45815 | 14.74767 | 32165 ft | 416 kts | 322° |
| 2026-05-04 12:55 | 40.50555 | 14.70321 | 32170 ft | 419 kts | 322° |
| 2026-05-04 12:55 | 40.55300 | 14.65857 | 32170 ft | 420 kts | 322° |
| 2026-05-04 12:56 | 40.60052 | 14.61392 | 32170 ft | 420 kts | 322° |
| 2026-05-04 12:56 | 40.64778 | 14.56949 | 32174 ft | 421 kts | 322° |
| 2026-05-04 12:57 | 40.69580 | 14.52434 | 32174 ft | 425 kts | 322° |
| 2026-05-04 12:57 | 40.73428 | 14.48795 | 32164 ft | 425 kts | 322° |
| 2026-05-04 12:58 | 40.77734 | 14.44722 | 32162 ft | 425 kts | 322° |
| 2026-05-04 12:58 | 40.82546 | 14.40165 | 32184 ft | 426 kts | 322° |
| 2026-05-04 12:59 | 40.87355 | 14.35597 | 32189 ft | 426 kts | 322° |
| 2026-05-04 12:59 | 40.92187 | 14.31008 | 32174 ft | 429 kts | 322° |
| 2026-05-04 13:00 | 40.97041 | 14.26390 | 32166 ft | 430 kts | 322° |
| 2026-05-04 13:00 | 41.01900 | 14.21748 | 32169 ft | 431 kts | 322° |
| 2026-05-04 13:01 | 41.06761 | 14.17104 | 32197 ft | 430 kts | 322° |
| 2026-05-04 13:01 | 41.11605 | 14.12465 | 32216 ft | 429 kts | 322° |
| 2026-05-04 13:02 | 41.16417 | 14.07835 | 32185 ft | 431 kts | 322° |
| 2026-05-04 13:02 | 41.21282 | 14.03154 | 32147 ft | 432 kts | 322° |
| 2026-05-04 13:03 | 41.26155 | 13.98468 | 32144 ft | 433 kts | 322° |
| 2026-05-04 13:03 | 41.31037 | 13.93771 | 32146 ft | 433 kts | 322° |
| 2026-05-04 13:04 | 41.35917 | 13.89059 | 32153 ft | 434 kts | 322° |
| 2026-05-04 13:04 | 41.40804 | 13.84303 | 32144 ft | 435 kts | 321° |
| 2026-05-04 13:05 | 41.45692 | 13.79550 | 32145 ft | 435 kts | 321° |
| 2026-05-04 13:05 | 41.50591 | 13.74795 | 32149 ft | 435 kts | 321° |
| 2026-05-04 13:06 | 41.55491 | 13.70030 | 32154 ft | 435 kts | 321° |
| 2026-05-04 13:06 | 41.60379 | 13.65262 | 32161 ft | 436 kts | 321° |
| 2026-05-04 13:07 | 41.65283 | 13.60454 | 32149 ft | 438 kts | 321° |
| 2026-05-04 13:07 | 41.70165 | 13.55660 | 32153 ft | 438 kts | 322° |
| 2026-05-04 13:08 | 41.75085 | 13.50835 | 32155 ft | 439 kts | 322° |
| 2026-05-04 13:08 | 41.80021 | 13.45992 | 32171 ft | 439 kts | 321° |
| 2026-05-04 13:09 | 41.84939 | 13.41146 | 32175 ft | 439 kts | 321° |
| 2026-05-04 13:09 | 41.89863 | 13.36277 | 32155 ft | 440 kts | 321° |
| 2026-05-04 13:10 | 41.94793 | 13.31391 | 32145 ft | 440 kts | 321° |
| 2026-05-04 13:10 | 41.99729 | 13.26505 | 32138 ft | 441 kts | 321° |
| 2026-05-04 13:11 | 42.04660 | 13.21601 | 32134 ft | 440 kts | 321° |
| 2026-05-04 13:11 | 42.09557 | 13.16727 | 32141 ft | 441 kts | 321° |
| 2026-05-04 13:12 | 42.14480 | 13.11811 | 32149 ft | 440 kts | 320° |
| 2026-05-04 13:12 | 42.19425 | 13.06866 | 32164 ft | 439 kts | 321° |
| 2026-05-04 13:13 | 42.24332 | 13.01957 | 32175 ft | 439 kts | 320° |
| 2026-05-04 13:13 | 42.29232 | 12.97042 | 32194 ft | 439 kts | 321° |
| 2026-05-04 13:14 | 42.34137 | 12.92106 | 32180 ft | 440 kts | 321° |
| 2026-05-04 13:14 | 42.39055 | 12.87149 | 32178 ft | 441 kts | 321° |
| 2026-05-04 13:15 | 42.43952 | 12.82204 | 32175 ft | 442 kts | 320° |
| 2026-05-04 13:15 | 42.48874 | 12.77221 | 32177 ft | 442 kts | 320° |
| 2026-05-04 13:16 | 42.53797 | 12.72236 | 32185 ft | 441 kts | 320° |
| 2026-05-04 13:16 | 42.58725 | 12.67239 | 32163 ft | 442 kts | 320° |
| 2026-05-04 13:17 | 42.63650 | 12.62228 | 32148 ft | 442 kts | 320° |
| 2026-05-04 13:17 | 42.68575 | 12.57200 | 32138 ft | 443 kts | 320° |
| 2026-05-04 13:18 | 42.73510 | 12.52163 | 32136 ft | 443 kts | 320° |
| 2026-05-04 13:18 | 42.78444 | 12.47107 | 32130 ft | 445 kts | 320° |
| 2026-05-04 13:19 | 42.83386 | 12.42027 | 32122 ft | 446 kts | 320° |
| 2026-05-04 13:19 | 42.88337 | 12.36933 | 32138 ft | 445 kts | 320° |
| 2026-05-04 13:20 | 42.93246 | 12.31873 | 32142 ft | 445 kts | 320° |
| 2026-05-04 13:20 | 42.98183 | 12.26776 | 32148 ft | 445 kts | 320° |
| 2026-05-04 13:21 | 43.03158 | 12.21635 | 32122 ft | 446 kts | 320° |
| 2026-05-04 13:21 | 43.08055 | 12.16481 | 32117 ft | 446 kts | 318° |
| 2026-05-04 13:22 | 43.12756 | 12.10937 | 32112 ft | 446 kts | 315° |
| 2026-05-04 13:22 | 43.17226 | 12.05075 | 32121 ft | 443 kts | 306° |
| 2026-05-04 13:23 | 43.20947 | 11.98344 | 32131 ft | 443 kts | 304° |
| 2026-05-04 13:23 | 43.24645 | 11.91578 | 32118 ft | 444 kts | 304° |
| 2026-05-04 13:24 | 43.28352 | 11.84789 | 32112 ft | 445 kts | 304° |
| 2026-05-04 13:24 | 43.32065 | 11.77981 | 32115 ft | 445 kts | 304° |
| 2026-05-04 13:25 | 43.37618 | 11.67750 | 32114 ft | 445 kts | 304° |
| 2026-05-04 13:25 | 43.41309 | 11.60920 | 32131 ft | 444 kts | 304° |
| 2026-05-04 13:26 | 43.44994 | 11.54111 | 32144 ft | 444 kts | 304° |
| 2026-05-04 13:26 | 43.48686 | 11.47277 | 32119 ft | 445 kts | 304° |
| 2026-05-04 13:27 | 43.52377 | 11.40424 | 32111 ft | 446 kts | 304° |
| 2026-05-04 13:27 | 43.56071 | 11.33537 | 32110 ft | 447 kts | 304° |
| 2026-05-04 13:28 | 43.59758 | 11.26644 | 32120 ft | 446 kts | 304° |
| 2026-05-04 13:28 | 43.63432 | 11.19756 | 32122 ft | 445 kts | 304° |
| 2026-05-04 13:29 | 43.67075 | 11.12926 | 32123 ft | 444 kts | 304° |
| 2026-05-04 13:29 | 43.70760 | 11.06008 | 32124 ft | 445 kts | 304° |
| 2026-05-04 13:30 | 43.74395 | 10.99150 | 32098 ft | 445 kts | 303° |
| 2026-05-04 13:30 | 43.78050 | 10.92224 | 32108 ft | 446 kts | 303° |
| 2026-05-04 13:31 | 43.81716 | 10.85287 | 32111 ft | 446 kts | 303° |
| 2026-05-04 13:31 | 43.85369 | 10.78350 | 32112 ft | 446 kts | 303° |
| 2026-05-04 13:32 | 43.89024 | 10.71394 | 32145 ft | 446 kts | 303° |
| 2026-05-04 13:32 | 43.92671 | 10.64440 | 32155 ft | 446 kts | 304° |
| 2026-05-04 13:33 | 43.96334 | 10.57456 | 32128 ft | 448 kts | 303° |
| 2026-05-04 13:33 | 43.99963 | 10.50496 | 32154 ft | 447 kts | 303° |
| 2026-05-04 13:34 | 44.03608 | 10.43497 | 32157 ft | 447 kts | 303° |
| 2026-05-04 13:34 | 44.07251 | 10.36489 | 32148 ft | 447 kts | 303° |
| 2026-05-04 13:35 | 44.12109 | 10.27094 | 32144 ft | 447 kts | 303° |
| 2026-05-04 13:36 | 44.15736 | 10.20067 | 32137 ft | 447 kts | 303° |
| 2026-05-04 13:36 | 44.19362 | 10.13025 | 32148 ft | 447 kts | 303° |
| 2026-05-04 13:37 | 44.22988 | 10.05968 | 32139 ft | 447 kts | 303° |
| 2026-05-04 13:37 | 44.26579 | 9.98955 | 32132 ft | 447 kts | 303° |
| 2026-05-04 13:38 | 44.30190 | 9.91885 | 32109 ft | 447 kts | 303° |
| 2026-05-04 13:38 | 44.33902 | 9.84906 | 32110 ft | 449 kts | 307° |
| 2026-05-04 13:38 | 44.35931 | 9.81581 | 31919 ft | 449 kts | 308° |
| 2026-05-04 13:39 | 44.37990 | 9.78285 | 31665 ft | 450 kts | 308° |
| 2026-05-04 13:39 | 44.40065 | 9.75006 | 31413 ft | 451 kts | 309° |
| 2026-05-04 13:39 | 44.42154 | 9.71722 | 31157 ft | 452 kts | 309° |
| 2026-05-04 13:39 | 44.44237 | 9.68437 | 30280 ft | 453 kts | 309° |
| 2026-05-04 13:40 | 44.46328 | 9.65112 | 29161 ft | 455 kts | 308° |
| 2026-05-04 13:40 | 44.48412 | 9.61770 | 28190 ft | 455 kts | 308° |
| 2026-05-04 13:40 | 44.50457 | 9.58481 | 27230 ft | 454 kts | 308° |
| 2026-05-04 13:40 | 44.52568 | 9.55086 | 26085 ft | 458 kts | 308° |
| 2026-05-04 13:41 | 44.54644 | 9.51745 | 25011 ft | 462 kts | 308° |
| 2026-05-04 13:41 | 44.56757 | 9.48341 | 24017 ft | 464 kts | 308° |
| 2026-05-04 13:41 | 44.58878 | 9.44918 | 23065 ft | 463 kts | 309° |
| 2026-05-04 13:42 | 44.63002 | 9.38251 | 22325 ft | 436 kts | 309° |
| 2026-05-04 13:42 | 44.64952 | 9.35103 | 22189 ft | 418 kts | 309° |
| 2026-05-04 13:42 | 44.66820 | 9.32085 | 22057 ft | 400 kts | 308° |
| 2026-05-04 13:42 | 44.68602 | 9.29199 | 21923 ft | 383 kts | 308° |
| 2026-05-04 13:43 | 44.70306 | 9.26430 | 21786 ft | 367 kts | 308° |
| 2026-05-04 13:43 | 44.71938 | 9.23767 | 21652 ft | 353 kts | 308° |
| 2026-05-04 13:43 | 44.73524 | 9.21176 | 21311 ft | 346 kts | 308° |
| 2026-05-04 13:43 | 44.75086 | 9.18632 | 21062 ft | 342 kts | 308° |
| 2026-05-04 13:44 | 44.76491 | 9.15968 | 20805 ft | 337 kts | 297° |
| 2026-05-04 13:44 | 44.77670 | 9.13123 | 20561 ft | 336 kts | 297° |
| 2026-05-04 13:44 | 44.78849 | 9.10287 | 20142 ft | 335 kts | 297° |
| 2026-05-04 13:44 | 44.80011 | 9.07500 | 19710 ft | 333 kts | 297° |
| 2026-05-04 13:45 | 44.81182 | 9.04693 | 19271 ft | 331 kts | 297° |
| 2026-05-04 13:45 | 44.82345 | 9.01907 | 18833 ft | 329 kts | 297° |
| 2026-05-04 13:45 | 44.83503 | 8.99123 | 18394 ft | 327 kts | 297° |
| 2026-05-04 13:45 | 44.84648 | 8.96363 | 17923 ft | 326 kts | 297° |
| 2026-05-04 13:46 | 44.85787 | 8.93615 | 17502 ft | 323 kts | 297° |
| 2026-05-04 13:46 | 44.86915 | 8.90896 | 17064 ft | 321 kts | 297° |
| 2026-05-04 13:46 | 44.88038 | 8.88190 | 16638 ft | 318 kts | 296° |
| 2026-05-04 13:46 | 44.89150 | 8.85503 | 16208 ft | 316 kts | 296° |
| 2026-05-04 13:47 | 44.90253 | 8.82829 | 15800 ft | 314 kts | 296° |
| 2026-05-04 13:47 | 44.91347 | 8.80177 | 15389 ft | 312 kts | 296° |
| 2026-05-04 13:47 | 44.92434 | 8.77534 | 14977 ft | 310 kts | 296° |
| 2026-05-04 13:47 | 44.93514 | 8.74907 | 14563 ft | 309 kts | 296° |
| 2026-05-04 13:48 | 44.94592 | 8.72288 | 14158 ft | 308 kts | 296° |
| 2026-05-04 13:48 | 44.95666 | 8.69678 | 13730 ft | 306 kts | 296° |
| 2026-05-04 13:48 | 44.96732 | 8.67087 | 13314 ft | 304 kts | 296° |
| 2026-05-04 13:48 | 44.97779 | 8.64538 | 12907 ft | 303 kts | 296° |
| 2026-05-04 13:49 | 44.98866 | 8.61989 | 12501 ft | 304 kts | 303° |
| 2026-05-04 13:49 | 45.00342 | 8.59849 | 12114 ft | 307 kts | 320° |
| 2026-05-04 13:49 | 45.02217 | 8.58411 | 11762 ft | 307 kts | 339° |
| 2026-05-04 13:49 | 45.04290 | 8.57720 | 11407 ft | 305 kts | 348° |
| 2026-05-04 13:50 | 45.06363 | 8.57160 | 11056 ft | 302 kts | 348° |
| 2026-05-04 13:50 | 45.08416 | 8.56599 | 10727 ft | 298 kts | 348° |
| 2026-05-04 13:50 | 45.10440 | 8.56041 | 10396 ft | 295 kts | 348° |
| 2026-05-04 13:50 | 45.12441 | 8.55487 | 10067 ft | 292 kts | 348° |
| 2026-05-04 13:51 | 45.14426 | 8.54937 | 9693 ft | 289 kts | 348° |
| 2026-05-04 13:51 | 45.16377 | 8.54395 | 9377 ft | 284 kts | 348° |
| 2026-05-04 13:51 | 45.18280 | 8.53862 | 9292 ft | 276 kts | 348° |
| 2026-05-04 13:51 | 45.20161 | 8.53333 | 9183 ft | 275 kts | 348° |
| 2026-05-04 13:52 | 45.23905 | 8.52288 | 8748 ft | 272 kts | 348° |
| 2026-05-04 13:52 | 45.25757 | 8.51775 | 8484 ft | 270 kts | 348° |
| 2026-05-04 13:52 | 45.27598 | 8.51318 | 8244 ft | 267 kts | 357° |
| 2026-05-04 13:53 | 45.29413 | 8.51647 | 8025 ft | 262 kts | 22° |
| 2026-05-04 13:53 | 45.30945 | 8.52969 | 7770 ft | 257 kts | 47° |
| 2026-05-04 13:53 | 45.31941 | 8.54997 | 7537 ft | 252 kts | 71° |
| 2026-05-04 13:54 | 45.32039 | 8.59756 | 7164 ft | 243 kts | 104° |
| 2026-05-04 13:54 | 45.31696 | 8.62112 | 7105 ft | 244 kts | 104° |
| 2026-05-04 13:54 | 45.31011 | 8.66841 | 7000 ft | 244 kts | 104° |
| 2026-05-04 13:55 | 45.30667 | 8.69204 | 6949 ft | 244 kts | 104° |
| 2026-05-04 13:55 | 45.29978 | 8.73935 | 6839 ft | 244 kts | 103° |
| 2026-05-04 13:55 | 45.29891 | 8.76335 | 6785 ft | 247 kts | 81° |
| 2026-05-04 13:56 | 45.30547 | 8.78579 | 6733 ft | 249 kts | 54° |
| 2026-05-04 13:56 | 45.31854 | 8.80193 | 6677 ft | 252 kts | 27° |
| 2026-05-04 13:56 | 45.35280 | 8.80469 | 6559 ft | 254 kts | 348° |
| 2026-05-04 13:57 | 45.37021 | 8.80003 | 6200 ft | 254 kts | 353° |
| 2026-05-04 13:57 | 45.38772 | 8.79750 | 5904 ft | 251 kts | 354° |
| 2026-05-04 13:58 | 45.43656 | 8.78637 | 4979 ft | 218 kts | 325° |
| 2026-05-04 13:58 | 45.46216 | 8.77107 | 4504 ft | 192 kts | 348° |
| 2026-05-04 13:58 | 45.47473 | 8.76761 | 4347 ft | 177 kts | 348° |
| 2026-05-04 13:59 | 45.48654 | 8.76474 | 4149 ft | 172 kts | 349° |
| 2026-05-04 13:59 | 45.49831 | 8.76260 | 4073 ft | 171 kts | 355° |
| 2026-05-04 13:59 | 45.52214 | 8.76324 | 3382 ft | 173 kts | 354° |
| 2026-05-04 14:00 | 45.53404 | 8.76005 | 2972 ft | 171 kts | 345° |
| 2026-05-04 14:00 | 45.55655 | 8.75367 | 2799 ft | 157 kts | 346° |
| 2026-05-04 14:00 | 45.56730 | 8.75094 | 2521 ft | 161 kts | 348° |
| 2026-05-04 14:01 | 45.57869 | 8.74821 | 1984 ft | 171 kts | 347° |
| 2026-05-04 14:01 | 45.59032 | 8.74486 | 1524 ft | 168 kts | 341° |
| 2026-05-04 14:01 | 45.61230 | 8.73814 | 887 ft | 154 kts | 351° |
| 2026-05-04 14:02 | 45.62276 | 8.73556 | 745 ft | 147 kts | 347° |
| 2026-05-04 14:02 | 45.63019 | 8.73344 | 743 ft | 65 kts | 349° |